Latest Weather Observations for Tarcoola

IDS60801

Issued at 10:35 pm CST Tuesday 22 July 2014 (issued every 30 minutes, with the page automatically refreshed every 10 minutes)

About weather observations | Map of weather stations | Latest weather observations for SA | Other Formats
Station Details ID: 016098 Name: TARCOOLA AERO Lat: -30.71 Lon: 134.58 Height: 123.0 m
Data from the previous 72 hours. | See also: Recent months at Tarcoola
Date/Time
CST
Temp
°C
App
Temp
°C
Dew
Point
Rel
Hum
%
Delta-T
°C
Wind Press
QNH
hPa
Press
MSL
hPa
Rain
since 9 am
mm
Dir
 
Spd
km/h
Gust
km/h
Spd
kts
Gust
kts
22/10:30pm 16.4 11.7 -2.1 28 7.6 ENE 13 20 7 11 1017.8 1017.9 0.0
22/10:00pm 16.0 12.1 -1.5 30 7.3 ENE 9 13 5 7 1018.0 - 0.0
22/09:30pm 16.6 11.8 -2.5 27 7.8 NNE 13 20 7 11 1018.2 1018.3 0.0
22/09:00pm 16.6 11.9 -1.5 29 7.5 ESE 13 19 7 10 1017.8 1017.9 0.0
22/08:30pm 15.7 12.8 -1.4 31 7.1 NNE 4 9 2 5 1018.6 1018.7 0.0
22/08:00pm 16.9 12.0 -3.2 25 8.1 N 13 17 7 9 1018.9 - 0.0
22/07:30pm 15.9 11.4 -3.1 27 7.6 NNE 11 13 6 7 1018.6 1018.7 0.0
22/07:00pm 16.5 12.4 -3.0 26 7.9 NNE 9 11 5 6 1018.4 - 0.0
22/06:30pm 17.2 13.7 -3.0 25 8.2 ESE 6 6 3 3 1017.8 1017.9 0.0
22/06:00pm 18.6 14.1 -2.9 23 8.9 NE 11 13 6 7 1017.9 1018.0 0.0
22/05:30pm 19.3 14.4 -3.5 21 9.4 NE 13 17 7 9 1017.9 1018.0 0.0
22/05:00pm 20.2 14.2 -3.4 20 9.8 NE 19 24 10 13 1017.5 - 0.0
22/04:30pm 20.9 14.8 -3.6 19 10.2 NNE 19 24 10 13 1017.4 1017.5 0.0
22/04:00pm 21.2 15.6 -3.3 19 10.3 NE 17 22 9 12 1017.3 - 0.0
22/03:30pm 21.5 16.6 -3.1 19 10.4 NE 13 20 7 11 1017.2 1017.3 0.0
22/03:00pm 21.6 16.0 -3.0 19 10.4 NE 17 24 9 13 1017.4 1017.5 0.0
22/02:30pm 21.9 15.8 -3.5 18 10.7 NNE 19 26 10 14 1017.5 1017.6 0.0
22/02:00pm 22.9 17.7 -2.6 18 11.0 NE 15 22 8 12 1018.1 - 0.0
22/01:30pm 22.1 16.8 -3.3 18 10.7 N 15 24 8 13 1018.5 1018.6 0.0
22/01:00pm 21.7 16.1 -2.9 19 10.5 NE 17 24 9 13 1018.5 - 0.0
22/12:30pm 21.3 16.0 -3.2 19 10.3 ENE 15 26 8 14 1018.7 1018.8 0.0
22/12:00pm 20.5 14.9 -3.2 20 9.9 NE 17 24 9 13 1019.8 1019.9 0.0
22/11:30am 18.4 12.4 -3.1 23 8.8 NE 19 24 10 13 1021.0 1021.0 0.0
22/11:00am 16.9 11.6 -3.2 25 8.1 NE 15 20 8 11 1021.7 - 0.0
22/10:30am 15.7 10.1 -2.7 28 7.4 NE 17 20 9 11 1022.3 1022.4 0.0
22/10:00am 14.0 9.1 -3.7 29 6.9 ENE 13 17 7 9 1022.7 - 0.0
22/09:30am 12.5 6.8 -3.7 32 6.2 ENE 17 19 9 10 1022.5 1022.6 0.0
22/09:00am 11.8 5.7 -3.5 34 5.8 ENE 19 22 10 12 1022.3 1022.4 0.0
22/08:30am 9.7 4.9 -2.9 41 4.7 E 13 19 7 10 1022.3 1022.4 0.0
22/08:00am 7.0 3.0 -2.4 51 3.5 ENE 9 13 5 7 1022.1 - 0.0
22/07:30am 5.0 0.8 -3.5 54 3.0 ENE 9 11 5 6 1021.8 1021.9 0.0
22/07:00am 6.1 1.2 -3.0 52 3.3 E 13 17 7 9 1021.5 - 0.0
22/06:30am 4.4 -0.1 -3.4 57 2.7 ENE 11 13 6 7 1021.5 1021.6 0.0
22/06:00am 4.9 1.2 -3.1 56 2.8 ENE 7 11 4 6 1021.2 1021.3 0.0
22/05:30am 5.0 2.7 -2.6 58 2.7 CALM 0 0 0 0 1020.9 1020.9 0.0
22/05:00am 3.1 0.5 -4.6 57 2.6 CALM 0 0 0 0 1020.8 - 0.0
22/04:30am 3.5 1.0 -4.2 57 2.6 CALM 0 0 0 0 1020.8 1020.8 0.0
22/04:00am 4.3 1.8 -4.2 54 2.9 CALM 0 0 0 0 1020.8 - 0.0
22/03:30am 4.4 1.9 -3.8 55 2.8 CALM 0 0 0 0 1020.8 1020.8 0.0
22/03:00am 4.3 1.8 -3.9 55 2.8 CALM 0 0 0 0 1020.7 1020.7 0.0
22/02:30am 4.5 2.0 -4.2 53 3.0 SSW 0 0 0 0 1020.7 1020.7 0.0
22/02:00am 5.5 2.6 -3.8 51 3.3 E 2 7 1 4 1020.8 - 0.0
22/01:30am 8.4 4.0 -2.8 45 4.1 E 11 13 6 7 1020.6 1020.6 0.0
22/01:00am 9.3 4.5 -2.6 43 4.5 E 13 15 7 8 1020.6 - 0.0
22/12:30am 8.9 4.1 -2.7 44 4.3 E 13 13 7 7 1020.6 1020.6 0.0
22/12:00am 9.5 4.7 -2.8 42 4.6 E 13 13 7 7 1020.6 1020.6 0.0
 
Date/Time
CST
Temp
°C
App
Temp
°C
Dew
Point
Rel
Hum
%
Delta-T
°C
Wind Press
QNH
hPa
Press
MSL
hPa
Rain
since 9 am
mm
Dir
 
Spd
km/h
Gust
km/h
Spd
kts
Gust
kts
21/11:30pm 9.8 5.4 -2.5 42 4.7 ENE 11 13 6 7 1020.7 1020.7 0.0
21/11:00pm 10.4 6.0 -2.6 40 5.0 E 11 13 6 7 1020.7 - 0.0
21/10:30pm 10.4 5.6 -2.6 40 4.9 E 13 15 7 8 1020.6 1020.6 0.0
21/10:00pm 10.7 6.6 -2.7 39 5.1 ENE 9 11 5 6 1020.6 - 0.0
21/09:30pm 11.7 6.9 -2.5 37 5.5 ENE 13 13 7 7 1020.7 1020.7 0.0
21/09:00pm 10.0 6.3 -3.3 39 5.0 ENE 7 9 4 5 1020.7 1020.7 0.0
21/08:30pm 10.9 6.7 -3.6 36 5.4 ENE 9 11 5 6 1020.6 1020.6 0.0
21/08:00pm 13.1 10.8 -2.0 35 6.0 CALM 0 0 0 0 1020.1 - 0.0
21/07:30pm 13.3 9.6 -2.6 33 6.3 NE 7 7 4 4 1019.7 1019.8 0.0
21/07:00pm 14.3 10.3 -2.2 32 6.6 NE 9 11 5 6 1019.3 - 0.0
21/06:30pm 14.8 10.3 -3.0 29 7.1 ENE 11 13 6 7 1018.9 1019.0 0.0
21/06:00pm 17.6 12.5 -2.1 26 8.2 NE 15 17 8 9 1018.5 1018.6 0.0
21/05:30pm 19.7 15.0 -2.0 23 9.2 NNE 13 17 7 9 1018.1 1018.2 0.0
21/05:00pm 20.6 15.1 -1.8 22 9.7 NNE 17 22 9 12 1018.1 - 0.0
21/04:30pm 21.0 15.5 -2.1 21 9.9 NNE 17 22 9 12 1018.0 1018.1 0.0
21/04:00pm 20.9 15.8 -2.2 21 9.9 NNE 15 24 8 13 1018.1 - 0.0
21/03:30pm 20.8 15.3 -2.3 21 9.9 NNE 17 22 9 12 1017.9 1018.0 0.0
21/03:00pm 20.3 14.7 -2.7 21 9.7 N 17 24 9 13 1017.9 1018.0 0.0
21/02:30pm 19.8 14.2 -2.5 22 9.4 N 17 24 9 13 1018.1 1018.2 0.0
21/02:00pm 20.3 14.4 -2.1 22 9.6 N 19 28 10 15 1018.2 - 0.0
21/01:30pm 19.7 12.4 -2.6 22 9.4 NNE 26 33 14 18 1018.4 1018.5 0.0
21/01:00pm 19.6 12.2 -3.3 21 9.5 N 26 33 14 18 1018.9 - 0.0
21/12:30pm 20.2 13.3 -2.8 21 9.7 NE 24 35 13 19 1019.2 1019.3 0.0
21/12:00pm 19.2 13.2 -3.0 22 9.2 NNE 19 26 10 14 1020.1 1020.2 0.0
21/11:30am 17.2 12.9 -1.9 27 7.9 NE 11 19 6 10 1020.9 1020.9 0.0
21/11:00am 15.9 9.8 -2.1 29 7.4 NNE 20 28 11 15 1021.3 - 0.0
21/10:30am 15.6 8.7 -2.8 28 7.4 NNE 24 33 13 18 1021.2 1021.3 0.0
21/10:00am 14.9 8.8 -2.1 31 6.9 NNE 20 32 11 17 1021.4 - 0.0
21/09:30am 13.4 6.7 -1.0 37 5.9 NNE 24 32 13 17 1020.9 1020.9 0.0
21/09:00am 11.2 7.1 -0.3 45 4.7 NE 11 15 6 8 1021.2 1021.3 0.0
21/08:30am 9.7 5.2 -0.5 49 4.0 NE 13 17 7 9 1020.8 1020.8 0.0
21/08:00am 8.6 4.4 -0.9 51 3.7 E 11 13 6 7 1020.3 - 0.0
21/07:30am 8.3 3.7 -1.0 52 3.6 E 13 17 7 9 1020.2 1020.3 0.0
21/07:00am 7.9 3.8 -0.1 57 3.2 ENE 11 13 6 7 1020.5 - 0.0
21/06:30am 7.8 5.5 0.5 60 2.9 W 2 7 1 4 1021.0 1021.0 0.0
21/06:00am 7.9 6.0 0.4 59 3.0 CALM 0 0 0 0 1020.8 1020.8 0.0
21/05:30am 8.0 4.4 0.5 59 3.0 WNW 9 11 5 6 1021.0 1021.0 0.0
21/05:00am 8.5 3.6 -0.5 53 3.5 E 15 24 8 13 1020.1 - 0.0
21/04:30am 8.7 3.6 -1.7 48 4.0 SW 15 22 8 12 1021.3 1021.4 0.0
21/04:13am 8.7 1.2 -1.7 48 4.0 W 28 39 15 21 1021.6 - 0.0
21/04:00am 8.7 4.0 -1.7 48 4.0 NE 13 17 7 9 1020.1 - 0.0
21/03:30am 8.5 3.4 -1.9 48 3.9 NE 15 17 8 9 1019.8 1019.9 0.0
21/03:00am 8.7 3.6 -1.7 48 4.0 NE 15 20 8 11 1019.6 1019.7 0.0
21/02:30am 9.2 3.4 -1.5 47 4.1 NE 19 24 10 13 1019.6 1019.7 0.0
21/02:00am 9.3 3.5 -1.7 46 4.2 NE 19 22 10 12 1020.0 - 0.0
21/01:30am 9.3 3.8 -2.0 45 4.3 NE 17 20 9 11 1020.7 1020.7 0.0
21/01:00am 7.9 3.1 -2.7 47 3.9 NE 13 15 7 8 1020.9 - 0.0
21/12:30am 7.7 2.5 -2.6 48 3.8 ENE 15 15 8 8 1021.2 1021.3 0.0
21/12:00am 6.7 2.5 -3.8 47 3.7 E 9 11 5 6 1021.4 1021.5 0.0
 
Date/Time
CST
Temp
°C
App
Temp
°C
Dew
Point
Rel
Hum
%
Delta-T
°C
Wind Press
QNH
hPa
Press
MSL
hPa
Rain
since 9 am
mm
Dir
 
Spd
km/h
Gust
km/h
Spd
kts
Gust
kts
20/11:30pm 7.0 2.1 -3.5 47 3.8 E 13 13 7 7 1021.4 1021.5 0.0
20/11:00pm 7.4 2.8 -4.0 44 4.1 ENE 11 13 6 7 1021.6 - 0.0
20/10:30pm 7.3 3.4 -4.4 43 4.1 ENE 7 9 4 5 1021.5 1021.6 0.0
20/10:00pm 8.5 4.9 -3.7 42 4.4 NE 6 7 3 4 1021.6 - 0.0
20/09:30pm 9.0 4.8 -3.9 40 4.7 NE 9 9 5 5 1021.5 1021.6 0.0
20/09:00pm 9.1 5.3 -4.1 39 4.8 ENE 7 9 4 5 1021.5 1021.6 0.0
20/08:30pm 9.0 5.1 -4.2 39 4.8 ESE 7 9 4 5 1021.6 1021.7 0.0
20/08:00pm 9.3 5.6 -4.6 37 5.0 ENE 6 9 3 5 1021.6 - 0.0
20/07:30pm 10.0 6.3 -4.7 35 5.3 NE 6 7 3 4 1021.5 1021.6 0.0
20/07:00pm 10.6 6.7 -4.6 34 5.6 N 7 9 4 5 1021.3 - 0.0
20/06:30pm 12.6 8.4 -4.1 31 6.3 N 9 9 5 5 1021.0 1021.0 0.0
20/06:00pm 13.9 9.7 -4.3 28 6.9 N 9 11 5 6 1020.7 1020.7 0.0
20/05:30pm 15.9 10.9 -4.1 25 7.8 N 13 19 7 10 1020.9 1020.9 0.0
20/05:00pm 16.6 11.3 -4.0 24 8.2 N 15 20 8 11 1020.8 - 0.0
20/04:30pm 17.3 11.2 -4.0 23 8.5 N 19 24 10 13 1020.8 1020.8 0.0
20/04:00pm 17.4 12.1 -3.9 23 8.5 NNE 15 28 8 15 1020.8 - 0.0
20/03:30pm 17.5 11.8 -3.8 23 8.5 NE 17 24 9 13 1020.8 1020.8 0.0
20/03:00pm 17.3 11.1 -3.4 24 8.3 N 20 32 11 17 1020.8 1020.8 0.0
20/02:30pm 17.3 11.6 -3.4 24 8.3 N 17 26 9 14 1021.0 1021.0 0.0
20/02:00pm 17.5 11.6 -2.2 26 8.2 N 19 26 10 14 1021.3 - 0.0
20/01:30pm 16.9 12.1 -2.2 27 7.9 NE 13 20 7 11 1021.9 1022.0 0.0
20/01:00pm 16.5 10.4 -2.5 27 7.8 N 20 26 11 14 1022.6 - 0.0
20/12:30pm 15.8 9.8 -1.3 31 7.1 NNE 20 32 11 17 1023.2 1023.3 0.0
20/12:00pm 15.3 8.6 -1.3 32 6.8 NNE 24 35 13 19 1024.0 1024.1 0.0
20/11:30am 15.0 8.5 0.4 37 6.2 NNE 24 35 13 19 1024.8 1024.9 0.0
20/11:00am 13.8 6.6 0.8 41 5.6 NNE 28 35 15 19 1025.2 - 0.0
20/10:30am 12.8 5.5 0.2 42 5.2 NNE 28 37 15 20 1025.5 1025.6 0.0
20/10:00am 13.2 5.9 0.3 41 5.4 NNE 28 39 15 21 1025.6 - 0.0
20/09:30am 11.4 4.9 0.2 46 4.6 NNE 24 33 13 18 1025.6 1025.7 0.0
20/09:00am 10.1 4.5 1.0 53 3.7 NE 20 28 11 15 1025.7 1025.8 0.0
20/08:30am 9.2 4.5 0.9 56 3.4 NE 15 20 8 11 1025.7 1025.8 0.0
20/08:00am 8.7 4.0 0.7 57 3.2 NE 15 20 8 11 1025.4 - 0.0
20/07:30am 7.8 3.4 0.5 60 2.9 NE 13 17 7 9 1025.3 1025.4 0.0
20/07:00am 7.4 3.4 0.2 60 2.8 NE 11 13 6 7 1025.1 - 0.0
20/06:30am 7.6 3.6 0.3 60 2.9 ENE 11 13 6 7 1024.9 1025.0 0.0
20/06:00am 7.5 4.2 0.3 60 2.8 ENE 7 9 4 5 1024.9 1025.0 0.0
20/05:30am 7.9 3.9 0.2 58 3.0 ENE 11 11 6 6 1024.8 1024.9 0.0
20/05:00am 8.3 5.0 0.1 56 3.3 ENE 7 9 4 5 1024.9 - 0.0
20/04:30am 9.0 5.0 0.2 54 3.5 NE 11 13 6 7 1024.9 1025.0 0.0
20/04:00am 9.4 5.4 0.3 53 3.7 NE 11 15 6 8 1024.9 - 0.0
20/03:30am 9.8 5.0 0.4 52 3.8 NE 15 19 8 10 1024.9 1025.0 0.0
20/03:00am 9.7 4.9 0.3 52 3.8 NE 15 20 8 11 1025.1 1025.2 0.0
20/02:30am 9.9 5.1 0.3 51 3.9 NE 15 19 8 10 1025.3 1025.4 0.0
20/02:00am 10.0 5.6 0.3 51 4.0 NE 13 17 7 9 1025.6 - 0.0
20/01:30am 9.8 5.8 0.2 51 3.9 ENE 11 13 6 7 1025.8 1025.9 0.0
20/01:00am 10.3 6.6 0.1 49 4.1 NE 9 13 5 7 1026.4 - 0.0
20/12:30am 10.6 6.2 0.1 48 4.3 NE 13 19 7 10 1026.3 1026.4 0.0
20/12:00am 10.7 5.5 0.2 48 4.3 NE 17 22 9 12 1026.3 1026.4 0.0
 
Date/Time
CST
Temp
°C
App
Temp
°C
Dew
Point
Rel
Hum
%
Delta-T
°C
Wind Press
QNH
hPa
Press
MSL
hPa
Rain
since 9 am
mm
Dir
 
Spd
km/h
Gust
km/h
Spd
kts
Gust
kts
19/11:30pm 11.0 5.8 0.1 47 4.4 ENE 17 20 9 11 1026.4 1026.5 0.0
19/11:00pm 11.2 6.0 0.0 46 4.6 ENE 17 22 9 12 1026.7 - 0.0

Other Formats:

Comma delimited format used in spreadsheet applications
http://www.bom.gov.au/fwo/IDS60801/IDS60801.94655.axf

JavaScript Object Notation format (JSON) in row-major order
http://www.bom.gov.au/fwo/IDS60801/IDS60801.94655.json